Time;durP1;ratioP1;P1;durP2;ratioP2;P2;SDS_P1;SDS_P2;PMS_P1;PMS_P2;Temp;Humidity;BMP_temperature;BMP_pressure;BME280_temperature;BME280_humidity;BME280_pressure;Samples;Min_cycle;Max_cycle;Signal;HPM_P1;HPM_P2
2021/07/01 05:00:47;;;;;;;14.50;11.95;;;;;;;31.71;56.50;94445.63;5844713;23;20680;-73
2021/07/01 05:03:13;;;;;;;12.25;10.38;;;;;;;30.78;60.00;94442.41;4931003;29;20047;-73
2021/07/01 05:05:38;;;;;;;14.85;11.82;;;;;;;29.82;63.14;94442.16;4949875;29;20030;-73
2021/07/01 05:08:04;;;;;;;13.38;12.10;;;;;;;29.00;65.48;94436.19;4947903;29;20515;-73
2021/07/01 05:10:29;;;;;;;17.23;11.98;;;;;;;29.05;66.11;94434.22;4949674;29;20484;-73
2021/07/01 05:12:55;;;;;;;12.40;11.25;;;;;;;28.99;67.28;94443.41;4948001;29;20090;-73
2021/07/01 05:15:22;;;;;;;12.60;11.35;;;;;;;28.97;66.84;94444.78;4949389;29;20440;-73
2021/07/01 05:17:48;;;;;;;12.45;11.18;;;;;;;28.91;68.15;94440.66;4948452;29;20043;-73
2021/07/01 05:20:13;;;;;;;13.98;11.63;;;;;;;28.84;67.33;94440.25;4949251;29;20031;-73
2021/07/01 05:22:39;;;;;;;12.68;11.20;;;;;;;29.05;67.40;94444.91;4948972;29;20031;-73
2021/07/01 05:25:05;;;;;;;14.02;11.38;;;;;;;29.21;66.77;94440.81;4948267;29;20031;-74
2021/07/01 05:27:30;;;;;;;14.57;10.50;;;;;;;29.58;65.21;94431.75;4949050;29;20066;-73
2021/07/01 05:29:55;;;;;;;12.13;10.48;;;;;;;29.54;65.97;94430.00;4948478;29;20477;-73
2021/07/01 05:32:21;;;;;;;12.65;11.48;;;;;;;29.41;65.67;94433.50;4949061;29;20046;-73
2021/07/01 05:34:46;;;;;;;13.93;11.50;;;;;;;28.59;67.61;94434.31;4948084;29;20027;-73
2021/07/01 05:37:12;;;;;;;11.60;10.55;;;;;;;30.57;62.62;94434.13;4948611;29;20040;-73
2021/07/01 05:39:37;;;;;;;12.07;10.77;;;;;;;30.63;61.73;94430.22;4948257;29;20409;-72
2021/07/01 05:42:04;;;;;;;11.70;10.52;;;;;;;30.93;58.76;94433.16;4948079;29;20023;-73
2021/07/01 05:44:29;;;;;;;10.27;9.30;;;;;;;32.35;56.90;94427.72;4949354;29;20090;-72
2021/07/01 05:46:55;;;;;;;11.15;10.02;;;;;;;32.81;54.87;94424.28;4947308;29;20023;-72
2021/07/01 05:49:20;;;;;;;10.57;9.50;;;;;;;34.42;52.04;94422.63;4949197;29;20027;-73
2021/07/01 05:51:47;;;;;;;10.45;9.25;;;;;;;34.62;50.44;94410.22;4947153;29;20559;-73
2021/07/01 05:54:26;;;;;;;11.35;10.20;;;;;;;31.36;58.61;94426.03;4948944;29;20107;-72
2021/07/01 05:56:51;;;;;;;;;;;;;;;31.71;57.59;94424.19;4945850;29;20126;-73
2021/07/01 05:59:17;;;;;;;10.43;9.53;;;;;;;34.24;51.30;94418.53;4929178;29;19950;-73
2021/07/01 06:01:42;;;;;;;10.25;9.52;;;;;;;33.44;53.00;94422.50;4928527;29;20052;-73
2021/07/01 06:04:08;;;;;;;11.77;9.55;;;;;;;33.89;52.40;94426.91;4928761;29;20035;-73
2021/07/01 06:06:35;;;;;;;10.25;8.27;;;;;;;34.08;52.47;94426.41;4929599;29;20583;-73
2021/07/01 06:09:01;;;;;;;9.77;8.88;;;;;;;34.29;50.69;94423.72;4928128;29;20032;-73
2021/07/01 06:11:26;;;;;;;14.57;9.23;;;;;;;32.91;54.32;94420.44;4929349;29;20086;-73
2021/07/01 06:13:52;;;;;;;12.70;9.10;;;;;;;33.78;52.43;94424.94;4928533;29;20114;-73
2021/07/01 06:16:17;;;;;;;10.02;8.95;;;;;;;34.42;51.30;94419.94;4911144;29;20031;-72
2021/07/01 06:18:43;;;;;;;10.52;8.90;;;;;;;33.66;52.73;94428.38;4929116;29;20112;-72
2021/07/01 06:21:09;;;;;;;9.50;8.68;;;;;;;35.14;49.80;94416.53;4928207;29;20024;-73
2021/07/01 06:23:39;;;;;;;11.48;10.23;;;;;;;32.58;54.60;94423.75;4929634;29;20026;-73
2021/07/01 06:26:04;;;;;;;10.07;9.27;;;;;;;34.84;50.15;94426.72;4927714;29;20035;-73
2021/07/01 06:28:33;;;;;;;10.70;9.70;;;;;;;34.78;49.44;94425.38;4927828;29;20036;-73
2021/07/01 06:30:58;;;;;;;9.77;8.88;;;;;;;33.91;50.81;94427.34;4934278;29;20035;-73
2021/07/01 06:33:24;;;;;;;10.73;9.88;;;;;;;35.54;47.94;94416.59;4929569;29;20035;-73
2021/07/01 06:35:50;;;;;;;9.75;8.85;;;;;;;36.27;47.33;94419.03;4928524;29;20039;-73
2021/07/01 06:38:18;;;;;;;12.48;8.52;;;;;;;36.11;47.25;94420.91;4928742;29;20043;-73
2021/07/01 06:40:47;;;;;;;9.77;8.88;;;;;;;37.46;45.19;94420.44;4912505;29;20043;-73
2021/07/01 06:43:13;;;;;;;9.90;8.85;;;;;;;34.01;51.45;94422.69;4910523;29;20118;-74
2021/07/01 06:45:38;;;;;;;9.90;9.00;;;;;;;33.04;55.06;94424.81;4929322;29;20024;-74
2021/07/01 06:48:04;;;;;;;9.77;8.65;;;;;;;31.65;59.24;94417.41;4927928;29;20043;-73
2021/07/01 06:50:29;;;;;;;10.23;8.60;;;;;;;31.75;58.18;94420.56;4912465;29;20061;-72
2021/07/01 06:52:56;;;;;;;9.88;8.85;;;;;;;31.77;59.13;94420.22;4927694;29;20038;-73
2021/07/01 06:55:21;;;;;;;9.68;8.90;;;;;;;32.57;55.88;94416.78;4927078;29;20420;-73
2021/07/01 06:57:47;;;;;;;9.73;8.93;;;;;;;33.78;53.08;94414.97;4928298;29;20035;-73
2021/07/01 07:00:14;;;;;;;9.02;8.13;;;;;;;36.75;46.16;94412.56;4927535;29;20028;-74
2021/07/01 07:02:42;;;;;;;9.55;8.73;;;;;;;36.38;46.54;94412.00;4927025;29;20055;-74
2021/07/01 07:05:12;;;;;;;9.68;8.75;;;;;;;36.26;47.85;94406.66;4926727;29;20055;-74
2021/07/01 07:07:41;;;;;;;11.15;8.90;;;;;;;36.89;45.80;94413.69;4910343;29;20035;-73
2021/07/01 07:10:08;;;;;;;10.27;9.00;;;;;;;37.73;44.49;94410.59;4927390;29;20027;-73
2021/07/01 07:12:39;;;;;;;9.85;8.98;;;;;;;36.35;45.25;94402.66;4926339;29;20087;-73
2021/07/01 07:15:06;;;;;;;12.23;9.70;;;;;;;32.42;54.49;94403.88;4927471;29;20046;-72
2021/07/01 07:17:32;;;;;;;11.82;9.05;;;;;;;31.80;57.56;94396.28;4926733;29;20024;-74
2021/07/01 07:19:59;;;;;;;14.30;10.07;;;;;;;32.17;56.37;94394.78;4927812;29;20396;-73
2021/07/01 07:22:28;;;;;;;9.93;8.98;;;;;;;32.11;56.85;94389.94;4890411;29;20033;-73
2021/07/01 07:24:54;;;;;;;14.35;10.25;;;;;;;31.81;56.96;94400.53;4910372;29;20569;-75
2021/07/01 07:27:23;;;;;;;11.23;9.88;;;;;;;31.14;57.41;94391.38;4900855;29;20032;-74
2021/07/01 07:29:48;;;;;;;;;;;;;;;31.31;57.49;94386.00;4924589;29;20057;-75
2021/07/01 07:32:14;;;;;;;16.23;8.93;;;;;;;31.19;56.79;94389.31;4930690;29;20384;-73
2021/07/01 07:34:39;;;;;;;15.98;9.35;;;;;;;31.36;55.91;94377.84;4930096;29;20039;-74
2021/07/01 07:37:05;;;;;;;11.73;8.95;;;;;;;32.01;54.97;94385.69;4913510;29;20676;-73
2021/07/01 07:39:32;;;;;;;13.52;9.60;;;;;;;32.54;56.18;94387.91;4913191;29;20027;-73
2021/07/01 07:41:58;;;;;;;13.80;10.18;;;;;;;32.26;56.16;94381.38;4913325;29;20087;-74
2021/07/01 07:44:23;;;;;;;14.57;9.15;;;;;;;31.15;57.63;94383.00;4930250;29;20067;-73
2021/07/01 07:46:50;;;;;;;28.85;19.38;;;;;;;31.18;57.69;94379.69;4929818;29;20083;-72
2021/07/01 07:49:17;;;;;;;16.65;12.75;;;;;;;30.73;58.85;94376.44;4928237;29;20040;-72
2021/07/01 07:51:42;;;;;;;18.27;12.07;;;;;;;30.26;59.66;94377.97;4931733;29;20056;-72
2021/07/01 07:54:08;;;;;;;14.18;11.18;;;;;;;31.88;59.68;94375.16;4900176;29;20028;-73
2021/07/01 07:56:36;;;;;;;17.08;11.27;;;;;;;32.17;58.54;94364.53;4924537;28;20043;-74
2021/07/01 07:59:03;;;;;;;10.65;8.55;;;;;;;32.11;54.77;94366.59;4916666;29;20397;-74
2021/07/01 08:01:30;;;;;;;15.52;9.77;;;;;;;31.51;55.74;94369.34;4941587;28;20039;-73
2021/07/01 08:03:55;;;;;;;17.00;8.00;;;;;;;32.53;50.95;94372.91;4940829;29;20028;-74
2021/07/01 08:06:23;;;;;;;18.33;8.02;;;;;;;33.05;48.84;94369.97;4920407;29;20619;-74
2021/07/01 08:08:48;;;;;;;17.08;8.65;;;;;;;31.58;51.15;94366.97;4929642;29;20077;-73
2021/07/01 08:11:14;;;;;;;14.85;7.20;;;;;;;33.00;48.15;94368.28;4897151;29;20859;-74
2021/07/01 08:13:40;;;;;;;13.93;7.93;;;;;;;32.44;49.68;94372.16;4911095;29;20470;-74
2021/07/01 08:16:06;;;;;;;17.15;8.60;;;;;;;32.57;46.10;94359.66;4928214;29;20036;-74
2021/07/01 08:18:43;;;;;;;17.40;7.53;;;;;;;32.52;49.60;94363.31;4928354;29;20034;-75
2021/07/01 08:21:13;;;;;;;17.15;7.07;;;;;;;31.51;45.42;94363.19;4912697;29;20063;-73
2021/07/01 08:23:39;;;;;;;17.48;6.65;;;;;;;32.23;49.37;94352.53;4929517;29;20023;-74
2021/07/01 08:26:05;;;;;;;22.55;7.45;;;;;;;32.19;49.99;94360.44;4912235;29;20082;-73
2021/07/01 08:28:30;;;;;;;16.75;7.47;;;;;;;32.75;49.60;94356.56;4930185;29;20486;-75
2021/07/01 08:30:57;;;;;;;17.80;6.95;;;;;;;31.58;47.34;94356.25;4895179;29;20493;-74
2021/07/01 08:33:23;;;;;;;21.02;7.47;;;;;;;31.59;46.36;94352.50;4913208;29;20023;-74
2021/07/01 08:35:50;;;;;;;23.73;7.00;;;;;;;32.26;47.51;94352.69;4912021;29;20050;-75
2021/07/01 08:38:15;;;;;;;16.52;5.70;;;;;;;32.40;47.60;94359.72;4911248;29;20055;-74
2021/07/01 08:40:41;;;;;;;15.90;6.35;;;;;;;32.81;45.44;94349.13;4928566;29;20027;-75
2021/07/01 08:43:08;;;;;;;15.07;6.90;;;;;;;32.61;45.56;94355.22;4911192;29;20039;-75
2021/07/01 08:46:05;;;;;;;17.67;6.05;;;;;;;32.43;45.28;94346.44;4929940;29;20106;-75
2021/07/01 08:48:40;;;;;;;22.70;6.97;;;;;;;32.92;47.38;94344.16;4905783;29;20409;-75
2021/07/01 08:51:05;;;;;;;15.18;7.80;;;;;;;32.69;47.76;94344.44;4911877;29;20039;-74
2021/07/01 08:53:49;;;;;;;15.63;7.30;;;;;;;30.59;45.96;94348.25;4895679;29;20039;-72
2021/07/01 08:56:15;;;;;;;23.23;7.20;;;;;;;31.62;45.37;94335.00;4928750;29;20437;-74
2021/07/01 08:58:46;;;;;;;21.48;7.03;;;;;;;32.26;47.05;94338.47;4896408;29;20028;-74
2021/07/01 09:01:11;;;;;;;14.95;6.10;;;;;;;32.42;40.57;94330.69;4910441;29;20681;-74
2021/07/01 09:03:37;;;;;;;13.55;5.72;;;;;;;32.03;40.43;94327.16;4927952;29;20024;-74
2021/07/01 09:06:03;;;;;;;15.30;5.75;;;;;;;31.63;40.67;94318.59;4910331;29;20043;-76
2021/07/01 09:08:32;;;;;;;15.38;6.22;;;;;;;31.74;40.99;94327.88;4894894;29;20536;-75
2021/07/01 09:11:03;;;;;;;35.22;6.28;;;;;;;31.49;40.75;94325.22;4926912;29;20035;-76
2021/07/01 09:13:29;;;;;;;15.90;5.65;;;;;;;32.57;43.39;94328.25;4910238;29;20312;-77
2021/07/01 09:15:55;;;;;;;17.00;6.35;;;;;;;32.58;41.82;94321.78;4895355;29;20087;-77
2021/07/01 09:18:20;;;;;;;14.32;6.05;;;;;;;31.97;42.62;94312.38;4900862;29;20060;-77
2021/07/01 09:20:46;;;;;;;12.85;5.78;;;;;;;31.89;41.71;94318.53;4876928;29;20577;-76
2021/07/01 09:23:11;;;;;;;11.60;6.35;;;;;;;32.66;43.13;94309.41;4908113;29;20024;-78
2021/07/01 09:25:38;;;;;;;16.25;5.60;;;;;;;33.05;42.09;94311.69;4927584;29;20051;-77
2021/07/01 09:28:04;;;;;;;14.43;5.70;;;;;;;32.39;43.09;94313.34;4917294;29;20409;-77
2021/07/01 09:30:31;;;;;;;16.80;6.70;;;;;;;32.31;41.79;94311.47;4916171;29;20031;-73
2021/07/01 09:32:58;;;;;;;19.50;6.00;;;;;;;32.34;42.84;94319.66;4927501;29;20055;-77
2021/07/01 09:35:24;;;;;;;14.15;5.20;;;;;;;32.84;42.43;94303.63;4927253;29;20020;-79
2021/07/01 09:37:50;;;;;;;12.52;5.13;;;;;;;32.92;42.70;94311.94;4911872;29;20513;-77
2021/07/01 09:40:18;;;;;;;15.18;6.50;;;;;;;32.10;41.24;94314.09;4916306;29;20016;-78
2021/07/01 09:42:44;;;;;;;16.13;5.90;;;;;;;32.31;42.39;94304.22;4895006;29;20421;-78
2021/07/01 09:45:11;;;;;;;13.07;6.03;;;;;;;32.54;42.10;94307.41;4910693;29;20034;-75
2021/07/01 09:47:38;;;;;;;18.52;5.82;;;;;;;33.00;44.23;94297.69;4927037;29;20036;-79
2021/07/01 09:50:05;;;;;;;8.23;6.22;;;;;;;32.77;43.55;94278.41;4878677;29;20465;-78
2021/07/01 09:52:34;;;;;;;10.30;5.15;;;;;;;33.27;42.64;94294.47;4925929;29;20426;-78
2021/07/01 09:55:01;;;;;;;18.60;6.20;;;;;;;32.77;42.53;94281.09;4910416;29;20086;-78
2021/07/01 09:57:32;;;;;;;18.63;6.63;;;;;;;31.85;42.51;94282.78;4893002;29;20171;-79
2021/07/01 09:59:59;;;;;;;15.20;6.32;;;;;;;32.69;44.62;94288.09;4896202;29;20410;-76
2021/07/01 10:02:25;;;;;;;18.80;6.90;;;;;;;32.82;42.40;94281.69;4908562;29;20052;-77
2021/07/01 10:04:50;;;;;;;25.13;6.60;;;;;;;32.88;39.19;94269.63;4909835;29;20031;-77
2021/07/01 10:07:21;;;;;;;18.17;5.90;;;;;;;32.30;39.11;94264.31;4893608;29;20086;-78
2021/07/01 10:09:52;;;;;;;22.10;5.90;;;;;;;31.99;41.65;94285.22;4894374;29;20091;-77
2021/07/01 10:12:19;;;;;;;17.83;6.47;;;;;;;31.99;41.97;94272.63;4910234;29;20024;-78
2021/07/01 10:14:45;;;;;;;20.00;5.78;;;;;;;32.25;42.38;94276.00;4909182;29;20035;-80
2021/07/01 10:17:11;;;;;;;18.27;6.03;;;;;;;32.60;45.48;94255.16;4909566;29;20593;-78
2021/07/01 10:19:37;;;;;;;22.35;6.45;;;;;;;32.57;42.46;94271.91;4909520;29;20028;-77
2021/07/01 10:22:04;;;;;;;18.30;6.40;;;;;;;32.41;42.05;94262.81;4908804;29;20026;-77
2021/07/01 10:24:30;;;;;;;19.10;6.72;;;;;;;32.33;42.74;94267.13;4926878;29;20032;-79
2021/07/01 10:26:56;;;;;;;15.10;5.63;;;;;;;32.57;44.87;94261.19;4909044;29;20042;-80
2021/07/01 10:29:22;;;;;;;21.05;6.28;;;;;;;32.56;43.26;94253.44;4909814;29;20486;-79
2021/07/01 10:31:59;;;;;;;24.02;5.70;;;;;;;32.45;42.57;94254.91;4893313;29;20083;-80
2021/07/01 10:34:25;;;;;;;18.67;5.95;;;;;;;32.72;40.92;94241.81;4910271;29;20035;-79
2021/07/01 10:37:14;;;;;;;17.85;5.63;;;;;;;32.99;42.56;94245.88;4893368;29;20563;-80
2021/07/01 10:39:40;;;;;;;21.90;5.95;;;;;;;32.69;39.36;94242.47;4909418;29;20118;-81
2021/07/01 10:42:06;;;;;;;16.25;5.82;;;;;;;33.01;38.27;94224.84;4892184;29;20477;-79
2021/07/01 10:44:31;;;;;;;21.55;6.38;;;;;;;31.75;38.45;94233.00;4892558;29;20038;-77
2021/07/01 10:46:57;;;;;;;22.70;6.72;;;;;;;31.82;39.14;94233.25;4908138;29;20122;-77
2021/07/01 10:49:35;;;;;;;19.90;6.38;;;;;;;31.90;39.04;94199.50;4923789;29;20028;-79
2021/07/01 10:52:03;;;;;;;21.80;6.13;;;;;;;32.31;39.27;94220.28;4877671;29;20032;-78
2021/07/01 10:54:28;;;;;;;20.65;6.25;;;;;;;31.84;39.58;94211.50;4909134;29;20496;-76
2021/07/01 10:56:54;;;;;;;23.98;7.18;;;;;;;31.43;39.52;94214.78;4892348;29;20043;-75
2021/07/01 10:59:20;;;;;;;25.30;7.10;;;;;;;31.82;38.59;94211.81;4922094;29;20032;-75
2021/07/01 11:01:47;;;;;;;18.67;6.10;;;;;;;32.63;40.69;94211.56;4908671;29;20054;-78
2021/07/01 11:04:13;;;;;;;22.20;6.35;;;;;;;32.60;39.69;94212.22;4930541;29;20051;-78
2021/07/01 11:06:41;;;;;;;20.38;6.65;;;;;;;31.99;41.23;94200.25;4911065;29;20028;-76
2021/07/01 11:09:09;;;;;;;20.73;6.67;;;;;;;32.19;43.37;94201.44;4928871;29;21063;-76
2021/07/01 11:11:36;;;;;;;16.92;5.60;;;;;;;32.50;42.19;94195.69;4907820;29;20087;-78
2021/07/01 11:14:04;;;;;;;22.75;6.15;;;;;;;32.28;40.86;94180.69;4912822;29;20119;-78
2021/07/01 11:16:43;;;;;;;23.08;5.95;;;;;;;33.00;41.67;94185.69;4913144;29;20035;-78
2021/07/01 11:19:13;;;;;;;15.75;6.07;;;;;;;32.59;43.69;94181.13;4912228;29;20485;-78
2021/07/01 11:21:45;;;;;;;19.80;6.55;;;;;;;32.53;42.75;94177.03;4881399;29;20028;-79
2021/07/01 11:24:18;;;;;;;23.70;5.82;;;;;;;32.56;41.91;94178.31;4912013;29;20042;-79
2021/07/01 11:26:54;;;;;;;20.27;6.35;;;;;;;32.07;43.50;94171.84;4929664;29;20047;-75
2021/07/01 11:29:42;;;;;;;44.00;7.40;;;;;;;32.35;44.02;94175.63;4897500;29;20086;-79
2021/07/01 11:32:16;;;;;;;21.90;6.32;;;;;;;32.17;43.72;94176.84;4910833;29;20032;-75
2021/07/01 11:34:44;;;;;;;19.08;6.63;;;;;;;31.91;44.68;94168.13;4929753;29;20023;-77
2021/07/01 11:37:09;;;;;;;20.38;6.32;;;;;;;32.50;43.45;94148.19;4912039;29;20027;-78
2021/07/01 11:39:35;;;;;;;20.15;6.40;;;;;;;32.22;43.76;94168.59;4896825;29;20039;-74
2021/07/01 11:42:04;;;;;;;22.67;6.70;;;;;;;31.99;46.12;94159.25;4929012;29;20027;-74
2021/07/01 11:44:33;;;;;;;16.98;6.40;;;;;;;32.65;43.08;94147.66;4929308;29;20031;-73
2021/07/01 11:47:00;;;;;;;22.00;6.35;;;;;;;32.24;42.47;94147.59;4912773;29;20102;-77
2021/07/01 11:49:30;;;;;;;30.33;6.80;;;;;;;32.46;43.00;94152.66;4929014;29;20030;-76
2021/07/01 11:51:55;;;;;;;24.92;6.13;;;;;;;31.93;42.20;94147.13;4912466;29;20036;-78
2021/07/01 11:54:21;;;;;;;24.40;6.15;;;;;;;32.01;42.06;94140.97;4896296;29;20605;-76
2021/07/01 11:59:31;;;;;;;20.58;5.47;;;;;;;32.63;43.56;94117.66;4913743;29;20031;-79
2021/07/01 12:01:58;;;;;;;17.67;6.47;;;;;;;32.65;44.60;94085.94;4911957;29;20058;-78
2021/07/01 12:04:35;;;;;;;19.83;6.68;;;;;;;32.88;41.94;94091.69;4912294;29;20527;-77
2021/07/01 12:07:16;;;;;;;25.30;7.35;;;;;;;32.37;42.15;94087.53;4897084;29;20024;-75
2021/07/01 12:09:42;;;;;;;19.33;6.35;;;;;;;32.52;42.02;94070.88;4896484;29;20031;-82
2021/07/01 12:12:14;;;;;;;17.00;6.00;;;;;;;32.23;43.35;94062.91;4895554;29;20028;-77
2021/07/01 12:14:48;;;;;;;21.05;6.13;;;;;;;31.92;41.86;94063.25;4909864;29;20437;-74
2021/07/01 12:17:52;;;;;;;21.30;6.20;;;;;;;32.38;40.94;94060.41;4928327;29;20055;-75
2021/07/01 12:20:47;;;;;;;20.63;5.97;;;;;;;32.35;40.53;94050.34;4928075;29;20028;-77
2021/07/01 12:23:20;;;;;;;23.08;5.70;;;;;;;32.38;41.73;94060.41;4905584;29;20543;-76
2021/07/01 12:25:50;;;;;;;24.10;6.35;;;;;;;32.28;41.86;94047.41;4929258;29;20038;-78
2021/07/01 12:28:18;;;;;;;20.73;7.03;;;;;;;32.92;43.09;94048.84;4895304;29;20031;-78
2021/07/01 12:30:56;;;;;;;27.30;6.72;;;;;;;32.73;42.39;94044.00;4911850;29;20027;-77
2021/07/01 12:33:46;;;;;;;14.40;5.80;;;;;;;32.44;42.38;94034.16;4912188;29;20054;-78
2021/07/01 12:36:24;;;;;;;21.85;6.25;;;;;;;32.70;42.13;94037.41;4926139;29;20118;-76
2021/07/01 12:39:11;;;;;;;22.95;5.95;;;;;;;32.53;40.68;94037.53;4928409;29;20382;-78
2021/07/01 12:41:44;;;;;;;28.90;6.97;;;;;;;32.17;40.50;94027.44;4927074;29;20023;-73
2021/07/01 12:44:30;;;;;;;16.60;5.45;;;;;;;32.91;41.62;94028.50;4927419;29;20062;-76
2021/07/01 12:46:58;;;;;;;14.68;4.93;;;;;;;32.97;40.83;94014.53;4897675;29;20063;-80
2021/07/01 12:49:32;;;;;;;26.08;5.38;;;;;;;33.08;39.98;94025.59;4877763;29;20126;-78
2021/07/01 12:52:03;;;;;;;20.33;5.45;;;;;;;33.35;42.25;94027.66;4926929;29;20031;-77
2021/07/01 12:54:29;;;;;;;23.50;5.88;;;;;;;33.17;40.78;94013.66;4909931;29;20030;-81
2021/07/01 12:56:57;;;;;;;29.75;6.18;;;;;;;33.11;39.97;94006.16;4910749;29;20465;-74
2021/07/01 12:59:23;;;;;;;22.63;6.28;;;;;;;32.91;39.87;94007.81;4927234;29;20027;-75
2021/07/01 13:01:49;;;;;;;24.05;6.05;;;;;;;32.84;40.33;94000.31;4926255;29;20058;-75
2021/07/01 13:04:24;;;;;;;16.38;5.13;;;;;;;32.69;38.12;94003.63;4928191;29;20028;-74
2021/07/01 13:06:50;;;;;;;28.88;6.35;;;;;;;32.50;38.22;93992.59;4927256;29;20559;-74
2021/07/01 13:09:31;;;;;;;13.43;5.57;;;;;;;33.26;40.39;93984.81;4911333;29;20032;-77
2021/07/01 13:11:57;;;;;;;16.05;5.53;;;;;;;32.80;40.29;93986.00;4927136;29;20548;-75
2021/07/01 13:14:23;;;;;;;23.95;6.38;;;;;;;33.07;40.10;93989.16;4911507;29;20390;-74
2021/07/01 13:17:11;;;;;;;23.88;6.07;;;;;;;33.25;39.80;93980.56;4927247;29;20512;-75
2021/07/01 13:19:39;;;;;;;23.20;5.93;;;;;;;32.92;39.51;93968.31;4932225;29;20053;-75
2021/07/01 13:22:17;;;;;;;23.70;5.45;;;;;;;33.40;39.83;93971.03;4916831;29;20051;-76
2021/07/01 13:25:00;;;;;;;25.45;6.13;;;;;;;33.06;38.04;93969.56;4936682;28;20036;-74
2021/07/01 13:27:28;;;;;;;14.70;5.63;;;;;;;33.28;39.37;93968.34;4891984;29;20509;-75
2021/07/01 13:29:54;;;;;;;28.02;6.90;;;;;;;33.23;37.32;93963.97;4908717;29;20502;-74
2021/07/01 13:32:19;;;;;;;19.00;5.85;;;;;;;33.07;35.61;93959.63;4907929;29;20028;-74
2021/07/01 13:34:45;;;;;;;26.23;6.43;;;;;;;33.08;36.51;93950.41;4907772;29;20036;-75
2021/07/01 13:37:37;;;;;;;34.50;5.60;;;;;;;33.48;36.05;93962.06;4891675;29;20043;-76
2021/07/01 13:40:12;;;;;;;18.48;6.32;;;;;;;33.45;37.74;93964.66;4890913;29;20415;-74
2021/07/01 13:42:37;;;;;;;21.52;6.57;;;;;;;33.18;37.10;93955.38;4906383;29;20521;-74
2021/07/01 13:45:07;;;;;;;27.92;6.65;;;;;;;32.96;37.32;93953.91;4908768;29;20066;-73
2021/07/01 13:47:41;;;;;;;21.23;5.88;;;;;;;33.47;36.42;93944.38;4905492;29;20523;-75
2021/07/01 13:50:07;;;;;;;19.23;5.65;;;;;;;33.16;37.54;93942.31;4909947;29;20122;-74
2021/07/01 13:52:33;;;;;;;25.67;6.22;;;;;;;33.07;38.28;93941.59;4910571;29;20791;-75
2021/07/01 13:54:58;;;;;;;21.77;5.53;;;;;;;32.54;37.48;93945.22;4926718;29;20028;-75
2021/07/01 13:57:25;;;;;;;14.13;5.00;;;;;;;32.49;39.06;93950.81;4927423;29;20149;-75
2021/07/01 13:59:58;;;;;;;18.85;5.65;;;;;;;31.93;45.31;93967.56;4909908;29;20561;-75
2021/07/01 14:02:24;;;;;;;20.10;5.65;;;;;;;32.09;42.41;93973.91;4906510;29;20072;-75
2021/07/01 14:04:49;;;;;;;25.73;5.65;;;;;;;31.70;44.19;93978.63;4908713;29;20095;-75
2021/07/01 14:07:33;;;;;;;20.77;5.97;;;;;;;30.85;44.88;93974.50;4932715;29;20047;-74
2021/07/01 14:10:09;;;;;;;15.50;5.25;;;;;;;30.53;47.39;93970.53;4927504;29;20083;-76
2021/07/01 14:12:34;;;;;;;20.13;5.63;;;;;;;30.10;48.78;93969.81;4909528;29;20046;-74
2021/07/01 14:15:00;;;;;;;24.15;5.80;;;;;;;29.85;48.78;93978.63;4893739;29;20032;-76
2021/07/01 14:17:25;;;;;;;17.40;5.32;;;;;;;29.78;49.29;93968.38;4909828;29;20062;-76
2021/07/01 14:19:51;;;;;;;14.63;5.00;;;;;;;29.61;49.69;93966.50;4894002;29;20062;-76
2021/07/01 14:22:16;;;;;;;15.20;6.10;;;;;;;29.50;51.46;93975.13;4909809;29;20086;-76
2021/07/01 14:24:42;;;;;;;20.10;6.75;;;;;;;29.57;50.92;93992.25;4926823;29;20578;-75
2021/07/01 14:27:09;;;;;;;24.27;5.45;;;;;;;29.21;51.53;93991.69;4910359;29;20079;-76
2021/07/01 14:29:44;;;;;;;17.88;5.35;;;;;;;29.27;52.07;93995.81;4909852;29;20032;-75
2021/07/01 14:32:09;;;;;;;19.95;6.30;;;;;;;29.43;54.62;94012.19;4893580;29;20123;-75
2021/07/01 14:34:35;;;;;;;16.75;5.15;;;;;;;29.38;53.09;94021.09;4927048;29;20035;-75
2021/07/01 14:37:01;;;;;;;21.42;5.22;;;;;;;29.35;52.99;94035.06;4910834;29;20409;-76
2021/07/01 14:39:26;;;;;;;16.35;5.63;;;;;;;28.98;54.40;94038.22;4914526;29;20038;-74
2021/07/01 14:42:05;;;;;;;30.42;6.25;;;;;;;28.53;50.34;94024.16;4912765;29;20067;-75
2021/07/01 14:44:30;;;;;;;27.17;5.67;;;;;;;28.25;50.84;94003.03;4930722;29;20497;-80
2021/07/01 14:46:56;;;;;;;24.92;6.10;;;;;;;28.34;49.98;94011.06;4913100;29;20099;-79
2021/07/01 14:49:31;;;;;;;35.78;6.88;;;;;;;28.12;49.95;94003.06;4914178;29;20032;-79
2021/07/01 14:51:58;;;;;;;19.85;5.47;;;;;;;27.85;50.71;94024.44;4882392;29;20450;-78
2021/07/01 14:54:28;;;;;;;16.48;5.68;;;;;;;27.65;51.41;94068.28;4913477;29;20036;-76
2021/07/01 14:57:02;;;;;;;34.40;6.40;;;;;;;27.13;53.56;94112.13;4913334;29;20502;-73
2021/07/01 14:59:47;;;;;;;28.33;6.75;;;;;;;26.55;55.16;94109.13;4930359;29;20035;-74
2021/07/01 15:02:13;;;;;;;30.77;7.18;;;;;;;26.16;55.97;94117.44;4912661;29;20050;-74
2021/07/01 15:04:44;;;;;;;27.05;7.13;;;;;;;26.04;56.08;94088.59;4930448;29;20039;-72
2021/07/01 15:07:14;;;;;;;22.88;6.03;;;;;;;26.00;54.63;94100.09;4930439;29;20481;-73
2021/07/01 15:09:52;;;;;;;23.80;6.55;;;;;;;25.87;56.34;94095.50;4930822;29;20039;-73
2021/07/01 15:12:25;;;;;;;19.48;5.82;;;;;;;25.69;54.82;94081.94;4928796;29;20031;-74
2021/07/01 15:14:57;;;;;;;19.00;5.50;;;;;;;25.53;55.97;94072.59;4913156;29;20028;-74
2021/07/01 15:17:24;;;;;;;17.95;4.78;;;;;;;25.66;56.98;94063.94;4929873;29;20032;-74
2021/07/01 15:19:50;;;;;;;16.48;4.35;;;;;;;25.52;55.97;94051.69;4938357;29;20023;-74
2021/07/01 15:22:16;;;;;;;20.02;5.70;;;;;;;25.27;57.21;94044.00;4929769;29;20055;-75
2021/07/01 15:24:42;;;;;;;14.82;5.35;;;;;;;25.12;58.85;94035.16;4929372;29;20039;-72
2021/07/01 15:27:07;;;;;;;29.10;13.82;;;;;;;25.07;59.95;94037.88;4938183;29;20048;-72
2021/07/01 15:29:33;;;;;;;45.47;22.45;;;;;;;25.37;58.85;94036.69;4937736;29;20401;-72
2021/07/01 15:31:58;;;;;;;38.88;17.90;;;;;;;25.72;59.75;94047.97;4927254;29;20388;-74
2021/07/01 15:34:24;;;;;;;57.33;22.40;;;;;;;25.68;59.16;94059.16;4929432;29;20148;-75
2021/07/01 15:36:50;;;;;;;47.65;18.67;;;;;;;25.73;59.65;94074.19;4943446;29;20493;-75
2021/07/01 15:39:15;;;;;;;33.17;10.60;;;;;;;25.28;59.81;94072.88;4931371;29;20035;-74
2021/07/01 15:41:41;;;;;;;30.75;8.88;;;;;;;25.34;58.86;94069.09;4911202;29;20039;-75
2021/07/01 15:44:06;;;;;;;25.83;7.88;;;;;;;25.62;58.14;94092.09;4929866;29;20406;-76
2021/07/01 15:46:31;;;;;;;23.45;6.45;;;;;;;25.66;59.26;94105.59;4929335;29;20028;-76
2021/07/01 15:48:57;;;;;;;16.27;5.70;;;;;;;25.66;59.10;94089.69;4928662;29;20477;-75
2021/07/01 15:51:25;;;;;;;18.40;5.70;;;;;;;25.92;60.68;94100.75;4929119;29;20031;-73
2021/07/01 15:53:51;;;;;;;14.50;5.50;;;;;;;25.85;62.03;94126.88;4930269;29;20031;-71
2021/07/01 15:56:16;;;;;;;8.73;4.97;;;;;;;25.82;64.01;94138.03;4928748;29;20040;-73
2021/07/01 15:58:42;;;;;;;11.80;6.07;;;;;;;25.68;63.55;94149.38;4929634;29;20424;-72
2021/07/01 16:01:07;;;;;;;12.93;6.07;;;;;;;25.50;66.06;94171.31;4928933;29;20055;-71
2021/07/01 16:03:33;;;;;;;9.85;6.05;;;;;;;25.15;68.14;94184.91;4929232;29;20486;-73
2021/07/01 16:05:58;;;;;;;16.02;7.60;;;;;;;25.20;67.70;94186.75;4929891;29;20063;-71
2021/07/01 16:08:24;;;;;;;16.60;6.72;;;;;;;25.05;67.41;94185.00;4928827;29;20031;-71
2021/07/01 16:10:51;;;;;;;14.15;6.95;;;;;;;24.94;65.14;94192.28;4929568;29;20091;-72
2021/07/01 16:13:18;;;;;;;14.40;6.05;;;;;;;24.80;65.96;94201.91;4928612;29;20052;-71
2021/07/01 16:15:44;;;;;;;11.73;6.53;;;;;;;24.77;65.37;94205.09;4932075;29;20429;-72
2021/07/01 16:18:09;;;;;;;13.30;6.82;;;;;;;24.87;66.20;94191.00;4938747;29;20027;-71
2021/07/01 16:20:35;;;;;;;22.70;7.13;;;;;;;24.49;64.58;94196.03;4937195;29;20119;-73
2021/07/01 16:23:06;;;;;;;14.73;6.35;;;;;;;24.39;64.98;94192.66;4945222;29;20024;-73
2021/07/01 16:25:33;;;;;;;9.43;5.30;;;;;;;24.37;64.92;94170.97;4947398;29;20031;-72
2021/07/01 16:27:58;;;;;;;9.77;5.38;;;;;;;24.47;64.13;94166.38;4948658;29;20027;-73
2021/07/01 16:30:24;;;;;;;13.88;5.95;;;;;;;24.48;64.35;94165.31;4947455;29;20524;-72
2021/07/01 16:32:49;;;;;;;15.88;6.25;;;;;;;24.36;65.70;94164.88;4948252;29;20051;-73